Rakitna Rakitna


Hail probability more information Hail probability


Weather station camera more information Weather station camera


Road camera more information Road camera


Visit our other sites:

Welcome to RakitnaRakitna website

Forest learning trailforest learning trail

Mast Trailmast road



Nearby METAR Reports

   
LJLJ - Ljubljana
Updated: 24-07-2024 20:00
Partly Cloudy  
Partly Cloudy  
   Wind: varies 1.9 km/h
Wind: varies 1.9 km/h
Temperature: 23°C
Dew Point: 20°C
Humidity: 83%
Barometer: 1014 hPa
Clouds: Partly Cloudy
Visibility: More than 10 km
Cloud details: Few Clouds 4000 ft,
Partly Cloudy 9000 ft
LJLJ 241800Z VRB01KT 9999 FEW040 SCT090 23/20 Q1014 NOSIG
LJCE - Cerklje ob Krki
Updated: 24-07-2024 20:30
Partly Cloudy  
Partly Cloudy  
   Wind: varies 1.9 km/h
Wind: varies 1.9 km/h
Temperature: 23°C
Dew Point: 20°C
Humidity: 83%
Barometer: 1014 hPa
Clouds: Partly Cloudy
Visibility: More than 10 km
Cloud details: Partly Cloudy
LJCE 241830Z AUTO VRB01KT 9999 NSC 23/20 Q1014
LJMB - Maribor
Updated: 24-07-2024 20:30
Partly Cloudy  
Partly Cloudy  
   Wind: NNW 3.7 km/h
Wind: NNW 3.7 km/h
Temperature: 22°C
Dew Point: 15°C
Humidity: 65%
Barometer: 1015 hPa
Clouds: Partly Cloudy
Visibility: More than 10 km
Cloud details: Partly Cloudy
LJMB 241830Z AUTO 34002KT 9999 NSC 22/15 Q1015
LJPZ - Portorož
Updated: 24-07-2024 20:30
Clear  
Clear  
   Wind: ESE 5.6 km/h
Wind: ESE 5.6 km/h
Temperature: 28°C
Heat Index: 28°C
Dew Point: 17°C
Humidity: 51%
Barometer: 1011 hPa
Clouds: Clear
Visibility: More than 10 km
Cloud details: Clear
LJPZ 241830Z AUTO 12003KT 9999 NCD 28/17 Q1011
LDRI - Rijeka, Airport, Croatia
Updated: 24-07-2024 20:30
Clear  
Clear  
   Wind: ESE 14.8 km/h
Wind: ESE 14.8 km/h
Temperature: 28°C
Heat Index: 28°C
Dew Point: 15°C
Humidity: 45%
Barometer: 1011 hPa
Visibility: More than 10 km
Cloud details: Clear
LDRI 241830Z 11008KT 080V170 CAVOK 28/15 Q1011
LOWK - Klagenfurt, Airport, Avstia
Updated: 24-07-2024 20:20
Mostly Cloudy  
Mostly Cloudy  
   Wind: NNE 9.3 km/h
Wind: NNE 9.3 km/h
Temperature: 24°C
Dew Point: 13°C
Humidity: 50%
Barometer: 1016 hPa
Clouds: Mostly Cloudy
Visibility: More than 10 km
Cloud details: Few Clouds 5000 ft,
Mostly Cloudy 6000 ft
LOWK 241820Z AUTO 03005KT 9999 FEW050 BKN060 24/13 Q1016 NOSIG

Script developed by  Saratoga-weather.org Adapted for the template by  Weerstation Leuven

You find our weather info also at:

Slovenia Weather Network

WeatherlinkIP

MapView

Geostik

Equipment we use:

Weather-station
Davis VP2+ aspirated

Weather-program
WeatherLink

Weather-server
Shuttle DS10U5

Provider
Vremensko društvo ZEVS

Davis VP2+ aspirated

WeatherLink

Shuttle DS10U5

Vremensko društvo ZEVS

Meteorological data of weather stations Rakitna is unofficial, the meteorological station isn’t a part of the National Meteorological Service of Slovenia (ARSO),
but it is included in the Weather organization ZEVS. The data is measured precisely and are exclusively for informative purposes and does not have the character of the official data.

The data is measured by the weather station "Davis VP2+ aspirated" from 05.03.2011.

We are warning, that we don’t take any responsibilities for any possible damage, resulting from the decisions taken on the basis of these data.